Time;durP1;ratioP1;P1;durP2;ratioP2;P2;SDS_P1;SDS_P2;PMS_P1;PMS_P2;Temp;Humidity;BMP_temperature;BMP_pressure;BME280_temperature;BME280_humidity;BME280_pressure;Samples;Min_cycle;Max_cycle;Signal;HPM_P1;HPM_P2
2022/12/24 00:00:09;;;;;;;13.45;7.80;;;;;;;12.12;61.65;100005.78;5014128;28;99280;-65
2022/12/24 00:02:37;;;;;;;15.93;7.80;;;;;;;12.16;61.26;100008.19;5010807;28;97127;-66
2022/12/24 00:05:05;;;;;;;13.57;7.60;;;;;;;11.97;61.41;100010.09;5014899;28;97192;-66
2022/12/24 00:07:31;;;;;;;11.38;7.95;;;;;;;12.01;61.52;100008.16;5010044;28;98843;-67
2022/12/24 00:09:58;;;;;;;12.20;7.25;;;;;;;12.13;61.51;100004.84;5011047;28;97940;-65
2022/12/24 00:12:24;;;;;;;14.85;8.13;;;;;;;11.94;62.01;100003.19;5014374;28;97693;-67
2022/12/24 00:14:51;;;;;;;11.10;6.95;;;;;;;11.86;61.92;100008.03;5008855;28;96917;-67
2022/12/24 00:17:18;;;;;;;13.23;7.40;;;;;;;11.92;61.64;99999.75;5014023;28;99298;-65
2022/12/24 00:19:46;;;;;;;11.50;7.20;;;;;;;11.93;61.69;99997.97;5009049;28;99263;-66
2022/12/24 00:22:13;;;;;;;20.52;6.97;;;;;;;12.03;61.68;99998.31;5014010;28;96798;-66
2022/12/24 00:24:42;;;;;;;12.75;7.78;;;;;;;11.90;62.39;99995.47;5013381;28;96898;-66
2022/12/24 00:27:09;;;;;;;10.20;7.10;;;;;;;12.06;61.75;99998.16;5008517;28;98456;-66
2022/12/24 00:29:35;;;;;;;12.25;7.43;;;;;;;12.21;61.19;100006.13;5003441;28;99266;-65
2022/12/24 00:32:02;;;;;;;11.63;7.30;;;;;;;12.05;61.39;100002.59;5014842;28;96827;-68
2022/12/24 00:34:29;;;;;;;13.07;7.75;;;;;;;12.25;60.63;100002.41;5011503;28;96861;-66
2022/12/24 00:36:57;;;;;;;12.82;6.88;;;;;;;11.90;61.32;100006.06;5012217;28;99193;-66
2022/12/24 00:39:23;;;;;;;10.85;7.28;;;;;;;11.98;61.52;100004.72;5003013;28;99945;-67
2022/12/24 00:41:50;;;;;;;12.90;7.35;;;;;;;11.82;61.90;100009.09;5011822;28;97144;-66
2022/12/24 00:44:16;;;;;;;10.90;7.07;;;;;;;11.88;61.67;100013.25;5003765;28;96888;-66
2022/12/24 00:46:43;;;;;;;10.73;6.20;;;;;;;12.07;61.08;100008.69;5009856;28;99095;-69
2022/12/24 00:49:12;;;;;;;11.13;6.30;;;;;;;11.86;61.31;100009.81;5011862;28;97849;-66
2022/12/24 00:51:39;;;;;;;13.95;7.00;;;;;;;11.98;61.25;100014.47;5009155;28;96835;-67
2022/12/24 00:54:07;;;;;;;12.05;7.03;;;;;;;11.91;61.22;100021.88;5008014;28;96841;-66
2022/12/24 00:56:34;;;;;;;12.25;7.20;;;;;;;11.81;61.36;100027.72;5009095;28;99102;-65
2022/12/24 00:59:00;;;;;;;12.18;6.35;;;;;;;11.93;61.15;100025.28;5008906;28;99216;-66
2022/12/24 01:01:28;;;;;;;12.30;6.88;;;;;;;11.66;61.78;100028.47;5010850;28;96945;-65
2022/12/24 01:05:09;;;;;;;8.52;5.93;;;;;;;11.70;62.21;100035.31;5007943;28;97587;-65
2022/12/24 01:06:42;;;;;;;11.18;6.40;;;;;;;11.72;61.69;100025.50;5005990;28;99109;-67
2022/12/24 01:09:09;;;;;;;;;;;;;;;11.89;61.24;100034.31;5009421;28;100662;-65
2022/12/24 01:11:36;;;;;;;9.27;5.90;;;;;;;12.10;60.93;100045.59;5004789;28;96796;-67
2022/12/24 01:14:02;;;;;;;9.00;5.82;;;;;;;12.15;60.48;100043.53;5002667;28;97314;-65
2022/12/24 01:16:29;;;;;;;9.65;5.28;;;;;;;12.06;60.60;100041.41;5006519;28;99253;-66
2022/12/24 01:18:56;;;;;;;7.55;5.72;;;;;;;12.02;61.10;100042.47;5011350;28;99363;-65
2022/12/24 01:21:23;;;;;;;12.35;6.53;;;;;;;11.84;61.69;100044.28;5003045;28;96788;-65
2022/12/24 01:23:49;;;;;;;15.77;6.68;;;;;;;12.02;61.21;100049.56;5006141;28;96720;-65
2022/12/24 01:26:17;;;;;;;8.73;6.10;;;;;;;12.13;60.59;100047.22;5009828;28;98038;-66
2022/12/24 01:28:44;;;;;;;11.05;6.50;;;;;;;12.08;60.85;100054.56;5009792;28;98028;-65
2022/12/24 01:31:12;;;;;;;11.23;6.70;;;;;;;11.92;61.47;100054.50;5005599;28;96706;-67
2022/12/24 01:33:39;;;;;;;10.57;6.78;;;;;;;12.09;61.12;100050.94;5005267;28;97484;-66
2022/12/24 01:36:07;;;;;;;10.18;6.53;;;;;;;11.95;61.63;100052.53;5011320;28;101611;-65
2022/12/24 01:38:33;;;;;;;10.65;6.72;;;;;;;11.98;60.90;100051.53;5012035;28;98940;-66
2022/12/24 01:43:48;;;;;;;14.45;6.85;;;;;;;11.91;61.18;100056.28;5010358;28;96788;-66
2022/12/24 01:46:20;;;;;;;11.80;7.38;;;;;;;12.02;60.90;100057.50;5011847;28;101894;-64
2022/12/24 01:48:49;;;;;;;10.77;7.18;;;;;;;11.97;60.82;100060.41;5015310;28;98846;-66
2022/12/24 01:51:24;;;;;;;12.18;7.57;;;;;;;11.99;60.74;100069.13;5009384;28;96831;-65
2022/12/24 01:53:56;;;;;;;11.77;7.20;;;;;;;11.93;61.16;100067.66;5008500;28;96737;-66
2022/12/24 01:56:24;;;;;;;13.02;7.72;;;;;;;11.84;61.04;100069.91;5005053;28;97992;-66
2022/12/24 01:58:57;;;;;;;11.90;7.15;;;;;;;11.69;61.99;100070.66;5006174;28;98437;-66
2022/12/24 02:01:24;;;;;;;16.33;7.85;;;;;;;11.83;61.57;100076.13;5003789;28;97257;-65
2022/12/24 02:03:50;;;;;;;13.40;8.27;;;;;;;11.95;61.20;100073.72;5006119;28;96919;-65
2022/12/24 02:06:20;;;;;;;15.38;8.45;;;;;;;12.07;61.00;100084.63;5004564;28;99841;-66
2022/12/24 02:08:47;;;;;;;12.40;7.72;;;;;;;12.04;60.62;100090.06;5006538;28;100668;-66
2022/12/24 02:11:16;;;;;;;15.85;8.60;;;;;;;11.95;61.09;100094.03;5005572;28;97513;-65
2022/12/24 02:13:46;;;;;;;12.02;8.23;;;;;;;11.92;61.09;100097.72;5008220;28;96743;-66
2022/12/24 02:16:26;;;;;;;15.07;9.40;;;;;;;11.79;61.35;100103.69;5012714;28;99120;-67
2022/12/24 02:19:00;;;;;;;14.80;8.10;;;;;;;11.86;61.32;100099.81;5006929;28;101476;-65
2022/12/24 02:21:44;;;;;;;18.38;9.93;;;;;;;11.96;61.06;100109.84;5007911;28;96654;-66
2022/12/24 02:24:52;;;;;;;14.93;8.50;;;;;;;11.96;61.07;100101.91;5002899;28;96747;-67
2022/12/24 02:27:29;;;;;;;13.07;7.82;;;;;;;11.99;60.96;100114.13;5005604;28;97472;-65
2022/12/24 02:30:03;;;;;;;11.30;8.25;;;;;;;12.02;60.87;100119.25;5006021;28;99861;-65
2022/12/24 02:32:36;;;;;;;15.82;8.90;;;;;;;11.83;61.16;100126.44;5011364;28;97212;-67
2022/12/24 02:35:08;;;;;;;15.07;8.95;;;;;;;11.90;60.80;100127.84;5015296;28;98678;-67
2022/12/24 02:37:39;;;;;;;14.48;8.00;;;;;;;12.05;60.74;100131.50;5015595;28;98282;-67
2022/12/24 02:40:11;;;;;;;16.17;9.00;;;;;;;12.01;60.68;100135.25;5008691;28;98851;-66
2022/12/24 02:42:43;;;;;;;15.70;8.73;;;;;;;12.11;60.46;100133.84;5002508;28;96722;-66
2022/12/24 02:45:15;;;;;;;15.15;8.30;;;;;;;11.96;60.72;100127.53;5007210;28;96941;-67
2022/12/24 02:47:44;;;;;;;15.85;9.60;;;;;;;11.85;61.23;100140.44;5005360;28;99116;-65
2022/12/24 02:50:13;;;;;;;13.63;8.70;;;;;;;11.91;61.35;100145.44;5010233;28;98900;-65
2022/12/24 02:52:42;;;;;;;16.48;10.07;;;;;;;11.99;60.62;100145.91;5003736;28;97321;-65
2022/12/24 02:55:14;;;;;;;13.35;8.65;;;;;;;12.04;61.09;100151.81;5011639;28;96943;-65
2022/12/24 02:57:59;;;;;;;14.63;8.63;;;;;;;11.98;60.61;100157.44;5007644;28;97846;-65
2022/12/24 03:00:39;;;;;;;14.93;8.55;;;;;;;11.97;61.06;100150.41;5006792;28;98887;-65
2022/12/24 03:03:21;;;;;;;15.15;9.32;;;;;;;11.82;61.30;100153.81;5005337;28;97154;-65
2022/12/24 03:05:51;;;;;;;20.02;10.02;;;;;;;12.09;60.69;100157.75;5006725;28;96860;-66
2022/12/24 03:08:26;;;;;;;13.85;9.15;;;;;;;11.90;61.39;100163.09;5006292;28;97950;-65
2022/12/24 03:11:00;;;;;;;15.63;8.85;;;;;;;12.00;61.24;100162.66;5004401;28;99136;-65
2022/12/24 03:13:28;;;;;;;15.05;9.60;;;;;;;12.06;60.77;100160.56;5000482;28;97177;-65
2022/12/24 03:15:56;;;;;;;16.33;9.38;;;;;;;11.98;61.28;100162.72;5011503;28;97105;-66
2022/12/24 03:18:25;;;;;;;16.45;9.50;;;;;;;12.02;60.99;100164.28;5004418;28;100709;-66
2022/12/24 03:20:57;;;;;;;14.70;8.80;;;;;;;12.04;60.81;100166.84;5007000;28;101984;-65
2022/12/24 03:23:25;;;;;;;17.38;9.05;;;;;;;11.98;nan;100174.19;5004288;28;96959;-65
2022/12/24 03:25:52;;;;;;;16.25;9.68;;;;;;;12.13;60.51;100172.56;5003523;28;96985;-65
2022/12/24 03:28:25;;;;;;;15.73;9.10;;;;;;;12.04;60.88;100177.44;5012189;28;98148;-66
2022/12/24 03:30:51;;;;;;;16.98;9.77;;;;;;;11.90;61.09;100175.50;5009520;28;98917;-66
2022/12/24 03:33:20;;;;;;;17.48;9.98;;;;;;;11.94;61.31;100182.38;5004690;28;96670;-65
2022/12/24 03:35:47;;;;;;;16.13;9.38;;;;;;;12.03;61.05;100184.53;5001979;28;96806;-65
2022/12/24 03:38:13;;;;;;;14.32;9.02;;;;;;;12.12;60.56;100191.16;5003247;28;98197;-65
2022/12/24 03:40:40;;;;;;;15.07;8.88;;;;;;;12.14;60.17;100191.97;5011317;28;98784;-65
2022/12/24 03:43:06;;;;;;;19.30;10.05;;;;;;;12.03;60.72;100191.63;5004934;28;96923;-65
2022/12/24 03:45:33;;;;;;;15.73;9.55;;;;;;;11.97;60.52;100198.06;5009604;28;96849;-65
2022/12/24 03:47:59;;;;;;;16.35;9.48;;;;;;;12.02;60.34;100205.78;5013662;28;98924;-65
2022/12/24 03:50:27;;;;;;;18.13;8.88;;;;;;;12.12;60.05;100205.25;5006624;28;99314;-64
2022/12/24 03:52:54;;;;;;;15.40;9.40;;;;;;;12.12;60.11;100207.06;5007390;28;96775;-65
2022/12/24 03:55:21;;;;;;;18.60;9.75;;;;;;;12.08;60.48;100214.28;5008044;28;96951;-65
2022/12/24 03:57:48;;;;;;;17.00;9.25;;;;;;;11.99;60.65;100222.69;5012696;28;98205;-65
2022/12/24 04:00:15;;;;;;;14.73;9.82;;;;;;;12.07;60.37;100219.69;5008070;28;98830;-65
2022/12/24 04:02:41;;;;;;;19.63;10.25;;;;;;;12.04;60.71;100228.63;5005038;28;96840;-64
2022/12/24 04:05:13;;;;;;;19.35;10.20;;;;;;;12.09;60.33;100231.88;5007347;28;96827;-65
2022/12/24 04:07:40;;;;;;;20.10;10.20;;;;;;;11.99;60.36;100228.00;5006648;28;99475;-65
2022/12/24 04:10:08;;;;;;;16.52;9.80;;;;;;;11.91;60.63;100224.88;5008215;28;99954;-65
2022/12/24 04:12:35;;;;;;;18.92;10.45;;;;;;;11.90;60.59;100209.91;5004825;28;96822;-65
2022/12/24 04:15:01;;;;;;;16.05;8.73;;;;;;;12.09;60.08;100210.69;5006425;28;96766;-64
2022/12/24 04:17:28;;;;;;;17.30;9.73;;;;;;;12.10;60.19;100215.06;5000717;28;99379;-66
2022/12/24 04:19:54;;;;;;;14.95;8.93;;;;;;;12.03;60.10;100228.69;4998806;28;98285;-65
2022/12/24 04:22:21;;;;;;;16.40;9.60;;;;;;;11.89;60.99;100232.00;5006696;28;96817;-65
2022/12/24 04:24:48;;;;;;;15.77;8.98;;;;;;;11.81;60.31;100232.41;5007238;28;96776;-65
2022/12/24 04:27:15;;;;;;;18.58;9.75;;;;;;;12.08;60.42;100234.63;5008936;28;97859;-65
2022/12/24 04:29:42;;;;;;;14.40;8.98;;;;;;;11.86;60.76;100245.41;5005452;28;98148;-65
2022/12/24 04:32:10;;;;;;;14.18;8.95;;;;;;;11.75;60.73;100240.63;5007951;28;96627;-66
2022/12/24 04:34:36;;;;;;;17.65;8.55;;;;;;;11.83;60.77;100253.50;5008351;28;96854;-65
2022/12/24 04:37:03;;;;;;;11.85;7.75;;;;;;;11.85;60.88;100251.63;5013162;28;99253;-66
2022/12/24 04:39:30;;;;;;;13.00;7.95;;;;;;;12.00;60.64;100256.19;5004548;28;99342;-65
2022/12/24 04:41:58;;;;;;;12.35;8.52;;;;;;;12.01;60.08;100262.34;5014737;28;96739;-65
2022/12/24 04:44:24;;;;;;;16.30;8.82;;;;;;;11.97;60.27;100270.44;5005789;28;96883;-66
2022/12/24 04:46:51;;;;;;;14.77;8.68;;;;;;;12.04;60.01;100278.94;5005480;28;98353;-66
2022/12/24 04:49:17;;;;;;;14.35;8.98;;;;;;;11.92;60.49;100274.25;5012485;28;101930;-65
2022/12/24 04:51:44;;;;;;;15.35;8.68;;;;;;;12.18;59.88;100284.41;5012383;28;96947;-64
2022/12/24 04:54:10;;;;;;;13.45;8.45;;;;;;;12.10;59.83;100280.41;5013627;28;96855;-65
2022/12/24 04:56:37;;;;;;;12.32;7.93;;;;;;;11.98;59.88;100276.59;5017535;28;98997;-66
2022/12/24 04:59:05;;;;;;;12.90;8.05;;;;;;;12.15;59.52;100281.03;5006972;28;98833;-66
2022/12/24 05:01:33;;;;;;;13.18;7.82;;;;;;;12.18;59.79;100275.63;5011530;28;97137;-66
2022/12/24 05:04:00;;;;;;;12.30;8.02;;;;;;;12.07;59.62;100278.78;5009635;28;96940;-65
2022/12/24 05:06:31;;;;;;;12.70;8.25;;;;;;;12.12;60.02;100287.38;5009212;28;98829;-66
2022/12/24 05:08:59;;;;;;;12.93;8.20;;;;;;;12.11;60.16;100290.94;5008710;28;100778;-64
2022/12/24 05:11:26;;;;;;;15.00;7.80;;;;;;;11.99;59.76;100288.91;5010770;28;97134;-66
2022/12/24 05:13:53;;;;;;;12.40;7.95;;;;;;;11.90;60.65;100287.53;5010587;28;96941;-65
2022/12/24 05:16:23;;;;;;;13.52;8.10;;;;;;;11.86;60.08;100282.47;5006983;28;97958;-65
2022/12/24 05:18:50;;;;;;;11.48;7.55;;;;;;;11.95;60.56;100292.59;5005387;28;102075;-66
2022/12/24 05:21:18;;;;;;;10.57;6.97;;;;;;;12.05;60.42;100285.09;5009106;28;97053;-66
2022/12/24 05:26:31;;;;;;;11.75;7.95;;;;;;;12.11;59.28;100290.94;5008747;28;97309;-66
2022/12/24 05:29:00;;;;;;;15.10;8.30;;;;;;;12.10;59.27;100283.94;5006977;28;101659;-65
2022/12/24 05:31:30;;;;;;;12.88;8.05;;;;;;;12.11;59.31;100280.34;5009386;28;96773;-66
2022/12/24 05:33:57;;;;;;;11.40;7.82;;;;;;;11.84;60.21;100285.19;5008320;28;97223;-65
2022/12/24 05:36:24;;;;;;;12.50;8.30;;;;;;;11.84;60.14;100289.63;5007433;28;99107;-65
2022/12/24 05:38:50;;;;;;;12.77;8.18;;;;;;;11.92;59.81;100284.81;5006233;28;99855;-65
2022/12/24 05:41:17;;;;;;;12.73;8.07;;;;;;;11.93;60.15;100283.91;5010826;28;96825;-65
2022/12/24 05:43:44;;;;;;;13.23;8.52;;;;;;;11.97;59.57;100277.50;5006447;28;96954;-64
2022/12/24 05:46:12;;;;;;;12.75;8.07;;;;;;;11.98;59.76;100301.28;5005668;28;98335;-66
2022/12/24 05:48:40;;;;;;;11.82;7.60;;;;;;;11.85;59.89;100301.94;5013709;28;98922;-66
2022/12/24 05:51:08;;;;;;;12.65;7.72;;;;;;;11.78;60.30;100308.44;5001490;28;97633;-65
2022/12/24 05:53:36;;;;;;;13.18;8.00;;;;;;;11.80;60.41;100303.94;5009047;28;96835;-65
2022/12/24 05:56:04;;;;;;;11.60;7.90;;;;;;;11.61;60.68;100306.56;5006681;28;98928;-65
2022/12/24 05:58:31;;;;;;;12.18;8.05;;;;;;;11.81;60.42;100314.47;5006158;28;98821;-65
2022/12/24 06:00:57;;;;;;;12.93;8.88;;;;;;;11.52;60.85;100317.56;5006945;28;97028;-65
2022/12/24 06:03:24;;;;;;;13.20;8.85;;;;;;;11.32;61.53;100322.91;5011320;28;98830;-66
2022/12/24 06:05:59;;;;;;;14.60;9.38;;;;;;;11.86;60.37;100324.84;5004605;28;101034;-66
2022/12/24 06:08:26;;;;;;;16.42;9.52;;;;;;;11.41;60.89;100326.00;5010273;28;97594;-65
2022/12/24 06:10:55;;;;;;;14.05;9.35;;;;;;;11.61;60.61;100326.88;5006058;28;96754;-65
2022/12/24 06:13:21;;;;;;;17.20;10.05;;;;;;;11.59;60.98;100330.47;5009113;28;96894;-65
2022/12/24 06:15:48;;;;;;;16.48;9.73;;;;;;;11.78;60.53;100341.06;5005500;28;99296;-65
2022/12/24 06:18:14;;;;;;;15.93;10.95;;;;;;;11.69;60.64;100346.75;5008698;28;102018;-67
2022/12/24 06:20:40;;;;;;;16.60;9.50;;;;;;;11.53;60.74;100340.47;5006563;28;96830;-66
2022/12/24 06:23:08;;;;;;;15.18;9.68;;;;;;;11.62;60.73;100344.50;5010163;28;96786;-65
2022/12/24 06:25:35;;;;;;;15.07;10.13;;;;;;;11.57;60.72;100355.25;5006612;28;97871;-66
2022/12/24 06:28:01;;;;;;;15.45;9.52;;;;;;;11.54;60.78;100347.47;5012411;28;98782;-65
2022/12/24 06:30:28;;;;;;;14.45;9.57;;;;;;;11.67;60.76;100361.00;5005950;28;97060;-66
2022/12/24 06:32:54;;;;;;;14.70;9.27;;;;;;;11.55;60.75;100360.63;5001783;28;96741;-65
2022/12/24 06:35:21;;;;;;;13.02;8.93;;;;;;;11.51;61.07;100367.00;5002234;28;97893;-65
2022/12/24 06:37:47;;;;;;;12.95;8.93;;;;;;;11.59;60.83;100375.44;5004819;28;98856;-65
2022/12/24 06:40:15;;;;;;;16.40;9.45;;;;;;;11.45;61.31;100375.19;5009536;28;96770;-66
2022/12/24 06:42:42;;;;;;;14.15;9.63;;;;;;;11.45;61.31;100363.75;5007172;28;96792;-65
2022/12/24 06:45:09;;;;;;;15.75;10.02;;;;;;;11.45;61.40;100367.25;5013535;28;98937;-65
2022/12/24 06:47:36;;;;;;;13.98;8.43;;;;;;;11.50;60.97;100367.91;5007070;28;98947;-66
2022/12/24 06:50:03;;;;;;;16.90;9.52;;;;;;;11.53;61.34;100367.78;5013300;28;96939;-66
2022/12/24 06:52:29;;;;;;;14.18;9.60;;;;;;;11.43;60.85;100366.47;5006383;28;97423;-66
2022/12/24 06:54:56;;;;;;;15.52;8.95;;;;;;;11.34;61.78;100374.84;5004920;28;99405;-66
2022/12/24 06:57:24;;;;;;;15.98;9.43;;;;;;;11.55;61.39;100380.94;5007193;28;98244;-66
2022/12/24 06:59:50;;;;;;;15.05;9.15;;;;;;;11.46;61.59;100386.66;5005163;28;96676;-66
2022/12/24 07:02:16;;;;;;;12.88;8.70;;;;;;;11.46;61.39;100387.50;5009487;28;96899;-66
2022/12/24 07:04:43;;;;;;;15.38;9.45;;;;;;;11.21;62.50;100397.47;5011612;28;99344;-66
2022/12/24 07:07:10;;;;;;;15.50;9.52;;;;;;;11.43;61.66;100392.91;5009434;28;102427;-67
2022/12/24 07:09:39;;;;;;;13.68;8.82;;;;;;;11.08;62.34;100402.41;5013367;28;97715;-65
2022/12/24 07:12:06;;;;;;;14.15;9.07;;;;;;;11.30;62.02;100402.31;5000597;28;97396;-66
2022/12/24 07:14:33;;;;;;;13.07;8.07;;;;;;;11.45;61.68;100406.94;5005540;28;98911;-65
2022/12/24 07:17:00;;;;;;;13.43;8.32;;;;;;;11.33;61.48;100412.78;5001232;28;97575;-66
2022/12/24 07:19:27;;;;;;;14.57;8.93;;;;;;;11.43;61.73;100424.66;5006082;28;96934;-65
2022/12/24 07:21:53;;;;;;;13.35;7.90;;;;;;;11.38;61.93;100431.97;5003928;28;99700;-65
2022/12/24 07:24:20;;;;;;;14.75;8.07;;;;;;;11.31;62.10;100424.34;5000402;28;99209;-66
2022/12/24 07:26:47;;;;;;;11.70;8.15;;;;;;;11.53;62.04;100439.22;5007175;28;99120;-66
2022/12/24 07:29:13;;;;;;;13.27;7.93;;;;;;;11.18;62.09;100443.41;5002453;28;97137;-70
2022/12/24 07:31:42;;;;;;;10.68;7.63;;;;;;;11.65;61.54;100439.59;5013675;28;97447;-66
2022/12/24 07:34:08;;;;;;;13.38;8.60;;;;;;;11.58;61.94;100450.47;5006548;28;98883;-66
2022/12/24 07:36:35;;;;;;;11.05;8.30;;;;;;;11.52;61.41;100449.88;5015228;28;97863;-67
2022/12/24 07:39:01;;;;;;;11.77;7.68;;;;;;;11.65;61.65;100439.59;5007891;28;97571;-65
2022/12/24 07:41:28;;;;;;;12.43;8.15;;;;;;;11.53;61.28;100449.81;5002919;28;96813;-65
2022/12/24 07:43:55;;;;;;;12.07;8.48;;;;;;;11.57;61.27;100446.09;5002838;28;97977;-66
2022/12/24 07:46:21;;;;;;;12.88;8.48;;;;;;;11.79;61.36;100446.03;5006092;28;99130;-65
2022/12/24 07:48:49;;;;;;;14.80;9.15;;;;;;;11.84;60.91;100454.63;5007819;28;96926;-65
2022/12/24 07:51:15;;;;;;;15.15;9.07;;;;;;;11.96;60.64;100462.00;5017354;28;96824;-66
2022/12/24 07:53:46;;;;;;;12.23;8.88;;;;;;;11.88;60.98;100463.31;5011783;28;99021;-65
2022/12/24 07:56:14;;;;;;;12.90;8.30;;;;;;;11.71;61.17;100471.09;5012592;28;98841;-68
2022/12/24 07:58:41;;;;;;;12.68;8.65;;;;;;;11.82;61.00;100466.19;5012671;28;97062;-66
2022/12/24 08:01:08;;;;;;;15.13;9.80;;;;;;;11.72;61.17;100470.16;5013643;28;97077;-66
2022/12/24 08:03:35;;;;;;;13.88;8.60;;;;;;;11.57;61.21;100469.91;5009613;28;98911;-65
2022/12/24 08:06:04;;;;;;;13.27;8.45;;;;;;;11.81;61.28;100472.44;5009614;28;97565;-67
2022/12/24 08:08:31;;;;;;;14.73;8.52;;;;;;;11.88;61.12;100466.78;5010735;28;98373;-65
2022/12/24 08:11:00;;;;;;;15.70;9.45;;;;;;;11.46;61.97;100469.53;5009428;28;97659;-67
2022/12/24 08:13:27;;;;;;;15.23;9.13;;;;;;;11.51;62.17;100475.47;5003621;28;99067;-66
2022/12/24 08:15:53;;;;;;;14.00;8.93;;;;;;;11.79;61.15;100475.16;5005539;28;100563;-69
2022/12/24 08:18:20;;;;;;;14.10;9.10;;;;;;;11.83;61.29;100474.06;5005200;28;97110;-65
2022/12/24 08:20:49;;;;;;;16.33;9.10;;;;;;;12.05;61.04;100481.91;5015140;28;97307;-65
2022/12/24 08:23:16;;;;;;;15.20;9.00;;;;;;;12.03;60.91;100470.53;5008263;28;98881;-65
2022/12/24 08:25:50;;;;;;;15.98;9.77;;;;;;;11.90;60.80;100477.31;5013747;28;100387;-66
2022/12/24 08:28:19;;;;;;;17.85;9.35;;;;;;;12.18;60.48;100483.06;5010352;28;97081;-67
2022/12/24 08:30:50;;;;;;;14.73;9.23;;;;;;;12.14;60.31;100492.06;5012897;28;96810;-65
2022/12/24 08:33:17;;;;;;;15.23;9.13;;;;;;;11.78;60.94;100491.97;5009142;28;98230;-68
2022/12/24 08:35:48;;;;;;;19.83;9.50;;;;;;;11.84;61.28;100493.47;5012273;28;98850;-66
2022/12/24 08:38:15;;;;;;;15.93;9.88;;;;;;;12.07;60.65;100495.09;5010039;28;97166;-65
2022/12/24 08:40:48;;;;;;;13.27;9.02;;;;;;;11.94;61.12;100489.50;5015908;28;97020;-66
2022/12/24 08:43:15;;;;;;;15.25;10.27;;;;;;;12.10;60.56;100497.59;5016834;28;99084;-66
2022/12/24 08:45:42;;;;;;;14.80;9.70;;;;;;;11.82;61.55;100511.19;5009186;28;98066;-66
2022/12/24 08:48:10;;;;;;;16.58;9.45;;;;;;;11.93;61.48;100508.97;5005888;28;96715;-66
2022/12/24 08:50:39;;;;;;;15.80;10.00;;;;;;;12.19;60.50;100505.13;5008088;28;96950;-66
2022/12/24 08:53:06;;;;;;;17.55;9.93;;;;;;;11.97;61.07;100513.19;5005009;28;98896;-68
2022/12/24 08:55:32;;;;;;;18.30;9.93;;;;;;;11.90;61.39;100509.09;5006346;28;97564;-66
2022/12/24 08:58:00;;;;;;;17.92;9.48;;;;;;;12.07;60.95;100506.56;5005646;28;97147;-67
2022/12/24 09:00:30;;;;;;;15.80;9.80;;;;;;;12.17;60.79;100512.28;5006754;28;96839;-67
2022/12/24 09:02:57;;;;;;;16.13;10.02;;;;;;;11.97;61.29;100516.69;5007308;28;100975;-66
2022/12/24 09:05:27;;;;;;;18.42;10.43;;;;;;;12.18;61.01;100512.22;5008199;28;98824;-66
2022/12/24 09:07:54;;;;;;;15.65;9.38;;;;;;;11.81;61.95;100523.59;5006397;28;97686;-66
2022/12/24 09:10:21;;;;;;;16.63;9.45;;;;;;;11.69;61.69;100531.16;5011945;28;96889;-65
2022/12/24 09:12:47;;;;;;;15.63;9.13;;;;;;;11.72;62.00;100533.69;5008034;28;99108;-66
2022/12/24 09:15:20;;;;;;;13.88;9.40;;;;;;;11.80;61.95;100535.13;5005577;28;98838;-66
2022/12/24 09:17:53;;;;;;;14.98;9.45;;;;;;;11.75;62.16;100549.50;5011700;28;96760;-65
2022/12/24 09:20:29;;;;;;;17.15;9.95;;;;;;;11.66;62.53;100544.53;5016816;28;97351;-67
2022/12/24 09:22:56;;;;;;;13.75;8.73;;;;;;;11.86;62.61;100544.56;4997142;28;98120;-66
2022/12/24 09:25:23;;;;;;;16.23;9.48;;;;;;;11.97;61.92;100551.13;4996309;28;101641;-65
2022/12/24 09:27:50;;;;;;;15.73;9.00;;;;;;;11.90;61.72;100556.75;5009514;28;96758;-65
2022/12/24 09:30:18;;;;;;;15.63;9.65;;;;;;;11.96;61.36;100556.47;5010660;28;96852;-67
2022/12/24 09:32:44;;;;;;;15.77;9.52;;;;;;;12.34;61.03;100554.75;5008601;28;99038;-67
2022/12/24 09:35:11;;;;;;;18.23;10.52;;;;;;;12.13;60.52;100567.19;5004756;28;102611;-66
2022/12/24 09:37:38;;;;;;;15.82;9.23;;;;;;;12.28;61.02;100563.84;5008089;28;97132;-66
2022/12/24 09:40:06;;;;;;;18.77;10.15;;;;;;;12.00;61.35;100587.19;5005332;28;96772;-66
2022/12/24 09:42:48;;;;;;;15.10;9.68;;;;;;;11.93;62.35;100588.41;5007694;28;101270;-67
2022/12/24 09:45:22;;;;;;;19.60;9.70;;;;;;;11.92;62.11;100587.53;5005158;28;98817;-66
2022/12/24 09:47:51;;;;;;;17.40;10.40;;;;;;;11.93;61.97;100583.09;5007061;28;96822;-65
2022/12/24 09:50:31;;;;;;;19.95;9.63;;;;;;;11.95;61.79;100597.09;5005174;28;97048;-67
2022/12/24 09:53:00;;;;;;;16.05;9.85;;;;;;;11.88;61.91;100595.69;5006199;28;98855;-66
2022/12/24 09:55:32;;;;;;;18.10;11.23;;;;;;;12.05;60.88;100606.38;5007816;28;99139;-67
2022/12/24 09:58:01;;;;;;;15.07;9.77;;;;;;;12.08;60.78;100603.59;5007563;28;97188;-67
2022/12/24 10:00:32;;;;;;;18.63;10.95;;;;;;;12.38;60.39;100604.03;5010684;28;96751;-65
2022/12/24 10:02:59;;;;;;;17.92;10.75;;;;;;;12.28;60.52;100613.31;5006740;28;99150;-64
2022/12/24 10:05:36;;;;;;;16.20;10.65;;;;;;;11.89;61.42;100618.56;5009342;28;102005;-66
2022/12/24 10:08:14;;;;;;;17.52;11.05;;;;;;;11.61;62.59;100624.16;4998147;28;96762;-68
2022/12/24 10:10:47;;;;;;;19.27;11.15;;;;;;;12.01;61.85;100625.13;5008586;28;96804;-66
2022/12/24 10:13:23;;;;;;;19.05;11.27;;;;;;;11.87;62.41;100625.72;5002736;28;98952;-66
2022/12/24 10:15:59;;;;;;;21.48;12.20;;;;;;;11.92;62.09;100623.75;5009844;28;99028;-67
2022/12/24 10:18:35;;;;;;;21.17;12.05;;;;;;;11.96;62.59;100620.03;5004833;28;97145;-66
2022/12/24 10:21:10;;;;;;;20.90;11.70;;;;;;;11.93;62.67;100628.97;5000894;28;96904;-68
2022/12/24 10:23:41;;;;;;;21.73;12.80;;;;;;;11.96;62.46;100635.91;5011081;28;98938;-66
2022/12/24 10:26:15;;;;;;;24.10;12.85;;;;;;;12.07;62.24;100638.97;5006551;28;99168;-66
2022/12/24 10:28:46;;;;;;;25.42;13.00;;;;;;;12.01;62.25;100641.91;5005388;28;96850;-66
2022/12/24 10:31:14;;;;;;;19.08;12.10;;;;;;;11.81;63.53;100647.16;5007756;28;96881;-66
2022/12/24 10:33:43;;;;;;;22.52;13.35;;;;;;;12.04;62.73;100648.81;5011707;28;100022;-66
2022/12/24 10:36:16;;;;;;;22.23;12.80;;;;;;;11.92;63.58;100663.44;5006353;28;102245;-66
2022/12/24 10:38:43;;;;;;;20.23;11.77;;;;;;;11.96;63.56;100665.91;5011341;28;96830;-68
2022/12/24 10:41:10;;;;;;;18.48;11.65;;;;;;;12.19;63.05;100667.56;5007919;28;96792;-64
2022/12/24 10:43:39;;;;;;;19.42;11.65;;;;;;;12.24;63.36;100668.22;5014188;28;99524;-66
2022/12/24 10:46:14;;;;;;;18.65;11.07;;;;;;;12.21;63.33;100671.00;5004594;28;99787;-66
2022/12/24 10:48:45;;;;;;;15.73;10.32;;;;;;;12.08;64.17;100675.09;5005116;28;96813;-65
2022/12/24 10:51:20;;;;;;;16.10;9.88;;;;;;;11.97;64.38;100670.28;4998040;28;97558;-67
2022/12/24 10:53:51;;;;;;;17.75;9.93;;;;;;;12.08;64.71;100668.97;5006895;28;98920;-64
2022/12/24 10:56:20;;;;;;;13.82;9.70;;;;;;;12.24;64.32;100681.47;5004217;28;98850;-66
2022/12/24 10:58:52;;;;;;;12.85;8.82;;;;;;;11.84;64.99;100678.78;5006683;28;96779;-65
2022/12/24 11:01:20;;;;;;;14.07;9.07;;;;;;;11.76;65.61;100680.88;5010389;28;97123;-66
2022/12/24 11:04:00;;;;;;;13.35;9.40;;;;;;;11.75;66.45;100689.78;5005746;28;96683;-66
2022/12/24 11:06:27;;;;;;;14.13;9.52;;;;;;;11.80;66.06;100685.16;5004495;28;99108;-65
2022/12/24 11:08:54;;;;;;;14.73;8.80;;;;;;;11.77;65.98;100690.56;5005964;28;97975;-67
2022/12/24 11:11:22;;;;;;;13.88;9.00;;;;;;;11.66;66.94;100685.69;5006178;28;96880;-65
2022/12/24 11:13:55;;;;;;;13.80;9.02;;;;;;;11.68;66.45;100689.16;5006231;28;99488;-67
2022/12/24 11:16:26;;;;;;;12.60;8.70;;;;;;;11.76;65.95;100697.63;5004278;28;98128;-67
2022/12/24 11:18:57;;;;;;;12.43;8.73;;;;;;;11.79;66.42;100697.53;5007179;28;96766;-67
2022/12/24 11:21:26;;;;;;;12.82;8.70;;;;;;;11.98;66.17;100700.25;5007712;28;96902;-64
2022/12/24 11:23:55;;;;;;;12.55;8.90;;;;;;;12.10;65.84;100706.81;5006551;28;99015;-66
2022/12/24 11:26:24;;;;;;;14.93;9.30;;;;;;;11.94;66.37;100696.03;5014121;28;101575;-66
2022/12/24 11:29:13;;;;;;;11.07;8.13;;;;;;;11.90;65.95;100694.44;5009957;28;97123;-67